• Join FlightAware (Why Join?)
  • Login
  • US Flag 
04:36PM EDT


 

Airport Tracker/Info


-or-


 

Live Flight TrackerFlight Track Log ✈ EJA831 ✈ 28-Jun-2013 ✈ KBJC - KICT

Flight Track Log - Related Links

Times and Time Zones

All times are in EDT time to prevent confusion due to time zone crossing. See the EJA831 flight status page for this flight to view local times or setup timezone preferences in your user account.

Time Position Orientation Groundspeed Altitude Reporting Facility
EDT Latitude Longitude Course Direction KTS MPH feet Rate Location/Type
08:01PM 39.9167 -105.1333 360° North 152 175 6,200  Level Denver TRACON
08:02PM 39.9667 -105.1333 360° North 223 257 8,000 1,560 Climbing Denver TRACON
08:03PM 40.0333 -105.0833 30° Northeast 290 334 9,400 1,380 Climbing Denver TRACON
08:04PM 40.0475 -105.0247 30° Northeast 288 331 10,200 1,620 Climbing Denver Center
08:05PM 40.0561 -104.9203 84° East 313 360 12,000 1,860 Climbing Denver Center
08:06PM 40.0083 -104.8108 120° Southeast 326 375 14,100 1,860 Climbing Denver Center
08:07PM 39.9617 -104.7047 120° Southeast 333 383 15,900 1,680 Climbing Denver Center
08:08PM 39.9200 -104.5856 114° Southeast 362 417 17,600 1,620 Climbing Denver Center
08:09PM 39.9008 -104.4508 100° East 375 432 19,300 1,740 Climbing Denver Center
08:10PM 39.8958 -104.3358 93° East 376 433 21,200 1,740 Climbing Denver Center
08:11PM 39.8886 -104.1731 93° East 370 426 23,000 840 Climbing Denver Center
08:12PM 39.8803 -104.0172 94° East 398 458 23,000 660 Level Denver Center
08:13PM 39.8492 -103.8761 106° East 394 453 24,400 1,560 Climbing Denver Center
08:14PM 39.8094 -103.7422 111° Southeast 392 451 26,300 1,680 Climbing Denver Center
08:15PM 39.7692 -103.6089 111° Southeast 394 453 27,900 1,440 Climbing Denver Center
08:16PM 39.7256 -103.4708 112° Southeast 409 471 29,300 1,620 Climbing Denver Center
08:18PM 39.6473 -103.3083 113° Southeast  Level FlightAware Approximate
08:18PM 39.6436 -103.2031 113° Southeast 396 456 33,000  Level Denver Center
08:19PM 39.5883 -103.0269 112° Southeast 437 503 33,000  Level Denver Center
08:20PM 39.5392 -102.8750 113° Southeast 455 524 33,000  Level Denver Center
08:21PM 39.4906 -102.7206 112° Southeast 461 531 33,000  Level Denver Center
08:22PM 39.4417 -102.5661 112° Southeast 464 534 33,000  Level Denver Center
08:23PM 39.3914 -102.4108 113° Southeast 467 537 33,000  Level Denver Center
08:24PM 39.3406 -102.2500 112° Southeast 464 534 33,000  Level Denver Center
08:25PM 39.2872 -102.0717 111° Southeast 467 537 33,000  Level Denver Center
08:26PM 39.2675 -101.9142 99° East 463 533 33,000  Level Denver Center
08:27PM 39.2431 -101.7325 100° East 460 529 33,000  Level Denver Center
08:28PM 39.2217 -101.5794 100° East 467 537 33,000  Level Denver Center
08:29PM 39.1900 -101.3967 103° East 469 540 33,000  Level Denver Center
08:30PM 39.1547 -101.2417 106° East 472 543 33,000  Level Denver Center
08:31PM 39.1133 -101.0600 106° East 475 547 33,000  Level Denver Center
08:33PM 39.0783 -100.9067 106° East 470 541 33,000  Level Denver Center
08:34PM 39.0444 -100.7514 106° East 472 543 33,000  Level Denver Center
08:35PM 39.0036 -100.5717 106° East 471 542 33,000  Level Denver Center
08:36PM 38.9664 -100.4083 106° East 470 541 33,000  Level Denver Center
08:37PM 38.9181 -100.2594 113° Southeast 478 550 33,000  Level Denver Center
08:38PM 38.8458 -100.0944 119° Southeast 476 548 33,000  Level Denver Center
08:38PM 38.8042 -99.9969 119° Southeast 478 550 33,000  Level Kansas City Center
08:39PM 38.7428 -99.8547 119° Southeast 478 550 33,000  Level Kansas City Center
08:40PM 38.6794 -99.7103 119° Southeast 482 555 33,000  Level Kansas City Center
08:41PM 38.6061 -99.5439 119° Southeast 482 555 33,000  Level Kansas City Center
08:42PM 38.5414 -99.3975 119° Southeast 480 552 33,000 -540 Level Kansas City Center
08:43PM 38.4761 -99.2503 119° Southeast 479 551 32,000 -1,680 Descending Kansas City Center
08:44PM 38.4100 -99.1008 119° Southeast 482 555 29,600 -2,340 Descending Kansas City Center
08:45PM 38.3453 -98.9539 119° Southeast 480 552 27,300 -2,460 Descending Kansas City Center
08:46PM 38.2817 -98.8122 120° Southeast 467 537 24,600 -2,760 Descending Kansas City Center
08:48PM 38.2203 -98.6742 119° Southeast 452 520 21,600 -3,240 Descending Kansas City Center
08:49PM 38.1492 -98.5175 120° Southeast 425 489 18,000 -3,240 Descending Kansas City Center
08:50PM 38.0942 -98.3958 120° Southeast 403 464 15,000 -2,760 Descending Kansas City Center
08:51PM 38.0397 -98.2764 120° Southeast 394 453 12,400 -2,340 Descending Kansas City Center
08:52PM 37.9886 -98.1642 120° Southeast 375 432 10,300 -1,860 Descending Kansas City Center
08:53PM 37.9300 -98.0433 122° Southeast 308 354 8,300 -1,500 Descending Kansas City Center
08:54PM 37.9019 -97.9756 118° Southeast 315 362 7,200 -1,560 Descending Kansas City Center
08:55PM 37.8528 -97.8742 122° Southeast 302 348 5,400 -1,560 Descending Kansas City Center
08:56PM 37.8033 -97.7986 130° Southeast 289 333 4,100 -720 Descending Kansas City Center
08:57PM 37.7544 -97.7247 130° Southeast 282 325 4,000 -60 Descending Kansas City Center
08:58PM 37.7067 -97.6528 130° Southeast 274 315 4,000  Level Kansas City Center
08:59PM 37.6617 -97.5881 131° Southeast 261 300 4,000  Level Kansas City Center
09:00PM 37.6167 -97.5292 134° Southeast 188 216 4,000 -480 Level Kansas City Center
09:01PM 37.5839 -97.4803 130° Southeast 198 228 3,100 -900 Descending Kansas City Center
09:02PM 37.5958 -97.4475 65° Northeast 161 185 2,300 -720 Descending Kansas City Center
09:03PM 37.6225 -97.4358 19° North 100 115 1,700 -480 Descending Kansas City Center
09:04PM 37.6542 -97.4208 21° North 114 131 1,400 -300 Descending Kansas City Center